createdAt,value
2016-12-10T00:00:11.927Z,53.89
2016-12-10T00:00:37.495Z,53.8
2016-12-10T00:01:03.165Z,53.89
2016-12-10T00:01:29.170Z,53.7
2016-12-10T05:01:05.362Z,53.87
2016-12-10T05:01:30.999Z,53.8
2016-12-10T05:01:56.579Z,53.77
2016-12-10T05:02:22.126Z,53.96
2016-12-10T05:02:47.660Z,53.87
2016-12-10T05:03:13.223Z,53.87
2016-12-10T05:03:38.804Z,53.77
2016-12-10T05:04:04.360Z,53.77
2016-12-10T05:04:29.913Z,53.77
2016-12-10T05:04:55.470Z,53.77
2016-12-10T05:05:21.072Z,53.77
2016-12-10T05:05:46.637Z,53.77
2016-12-10T05:06:12.248Z,53.77
2016-12-10T05:06:37.824Z,53.67
2016-12-10T05:07:03.390Z,54.06
2016-12-10T05:07:28.963Z,54.06
2016-12-10T05:07:54.523Z,53.77
2016-12-10T05:08:20.179Z,53.87
2016-12-10T05:08:45.744Z,53.77
2016-12-10T05:09:11.299Z,53.77
2016-12-10T05:09:36.839Z,53.77
2016-12-10T05:10:02.422Z,53.77
2016-12-10T05:10:28.027Z,53.99
2016-12-10T05:10:53.611Z,53.77
2016-12-10T05:11:19.171Z,53.96
2016-12-10T05:11:44.729Z,53.77
2016-12-10T05:12:10.300Z,54.74
2016-12-10T05:12:35.896Z,53.77
2016-12-10T05:13:01.503Z,53.77
2016-12-10T05:13:27.072Z,53.58
2016-12-10T05:13:52.632Z,53.96
2016-12-10T05:14:18.232Z,53.77
2016-12-10T05:14:43.789Z,53.96
2016-12-10T05:15:09.352Z,53.96
2016-12-10T05:15:34.901Z,53.77
2016-12-10T05:16:00.568Z,53.96
2016-12-10T05:16:26.179Z,53.67
2016-12-10T05:16:51.824Z,53.77
2016-12-10T05:17:17.377Z,53.67
2016-12-10T05:17:42.963Z,53.77
2016-12-10T05:18:08.649Z,53.77
2016-12-10T05:18:34.222Z,54.66
2016-12-10T05:18:59.790Z,53.8
2016-12-10T05:19:25.462Z,53.77
2016-12-10T05:19:51.084Z,53.77
2016-12-10T05:20:16.678Z,53.7
2016-12-10T05:20:42.325Z,53.67
2016-12-10T05:21:07.894Z,53.67
2016-12-10T05:21:33.457Z,53.77
2016-12-10T05:21:59.028Z,53.77
2016-12-10T05:22:24.585Z,53.58
2016-12-10T05:22:50.237Z,53.87
2016-12-10T05:23:15.796Z,53.67
2016-12-10T05:23:41.351Z,54.09
2016-12-10T05:24:06.884Z,53.77
2016-12-10T05:24:32.461Z,53.67
2016-12-10T05:24:58.097Z,53.77
2016-12-10T05:25:23.681Z,53.77
2016-12-10T05:25:49.329Z,53.96
2016-12-10T05:26:14.888Z,53.77
2016-12-10T05:26:41.262Z,53.77
2016-12-10T05:27:06.842Z,53.96
2016-12-10T05:27:32.411Z,53.77
2016-12-10T05:27:57.975Z,53.87
2016-12-10T05:28:23.551Z,53.8
2016-12-10T05:28:49.115Z,53.87
2016-12-10T05:29:14.683Z,53.77
2016-12-10T05:29:40.369Z,53.77
2016-12-10T05:30:05.923Z,53.87
2016-12-10T05:30:31.534Z,53.77
2016-12-10T05:30:57.171Z,54.06
2016-12-10T05:31:22.737Z,53.87
2016-12-10T05:31:48.451Z,54.06
2016-12-10T05:32:14.006Z,54.35
2016-12-10T05:32:39.557Z,53.87
2016-12-10T05:33:05.127Z,53.77
2016-12-10T05:33:30.729Z,54.54
2016-12-10T05:33:56.307Z,53.96
2016-12-10T05:34:21.859Z,54.54
2016-12-10T05:34:47.420Z,53.77
2016-12-10T05:35:12.972Z,54.06
2016-12-10T05:35:38.544Z,53.87
2016-12-10T05:36:04.134Z,53.87
2016-12-10T05:36:29.740Z,53.77
2016-12-10T05:36:55.404Z,53.58
2016-12-10T05:37:20.967Z,54.16
2016-12-10T05:37:46.528Z,54.16
2016-12-10T05:38:12.083Z,53.87
2016-12-10T05:38:37.645Z,54.16
2016-12-10T05:39:03.253Z,54.06
2016-12-10T05:39:28.744Z,54.06
2016-12-10T05:39:54.324Z,54.06
2016-12-10T05:40:19.889Z,53.96
2016-12-10T05:40:45.445Z,54.25
2016-12-10T05:41:11.012Z,54.16
2016-12-10T05:41:36.638Z,53.96
2016-12-10T05:42:02.202Z,54.06
2016-12-10T05:42:27.772Z,54.16
2016-12-10T05:42:53.332Z,54.06
2016-12-10T05:43:18.911Z,54.35
2016-12-10T05:43:44.473Z,54.06
2016-12-10T05:44:10.040Z,54.06
2016-12-10T05:44:35.684Z,53.96
2016-12-10T05:45:01.273Z,54.06
2016-12-10T05:45:26.825Z,53.87
2016-12-10T05:45:52.403Z,53.96
2016-12-10T05:46:18.081Z,53.96
2016-12-10T05:46:43.731Z,54.16
2016-12-10T05:47:09.303Z,54.16
2016-12-10T05:47:34.871Z,54.06
2016-12-10T05:48:00.433Z,54.16
2016-12-10T05:48:26.000Z,54.06
2016-12-10T05:48:51.673Z,54.06
2016-12-10T05:49:17.406Z,54.35
2016-12-10T05:49:43.083Z,54.06
2016-12-10T05:50:08.681Z,53.87
2016-12-10T05:50:34.240Z,53.67
2016-12-10T05:50:59.804Z,54.06
2016-12-10T05:51:25.348Z,54.06
2016-12-10T05:51:50.920Z,54.44
2016-12-10T05:52:16.483Z,54.44
2016-12-10T05:52:42.052Z,54.74
2016-12-10T05:53:07.594Z,54.35
2016-12-10T05:54:11.692Z,54.35
2016-12-10T05:54:37.260Z,54.44
2016-12-10T05:55:02.810Z,53.87
2016-12-10T05:55:28.373Z,54.35
2016-12-10T05:55:53.980Z,54.16
2016-12-10T05:56:19.551Z,53.87
2016-12-10T05:56:45.131Z,54.16
2016-12-10T05:57:10.811Z,54.16
2016-12-10T05:57:36.362Z,53.96
2016-12-10T05:58:01.924Z,54.25
2016-12-10T05:58:27.475Z,54.44
2016-12-10T05:58:53.128Z,54.25
2016-12-10T05:59:18.692Z,54.25
2016-12-10T05:59:44.319Z,54.16
2016-12-10T06:00:09.971Z,54.16
2016-12-10T06:00:35.531Z,54.16
2016-12-10T06:01:01.089Z,54.16
2016-12-10T06:01:26.651Z,54.16
2016-12-10T06:01:52.223Z,54.16
2016-12-10T06:02:17.764Z,54.16
2016-12-10T06:02:43.391Z,54.16
2016-12-10T06:03:08.951Z,54.06
2016-12-10T06:03:34.526Z,54.16
2016-12-10T06:04:00.118Z,54.06
2016-12-10T06:04:25.648Z,54.16
2016-12-10T06:04:51.207Z,54.35
2016-12-10T06:05:16.957Z,54.16
2016-12-10T06:05:42.509Z,53.87
2016-12-10T06:06:08.085Z,53.96
2016-12-10T06:06:33.643Z,54.16
2016-12-10T06:06:59.281Z,53.87
2016-12-10T06:07:24.858Z,54.25
2016-12-10T06:07:50.396Z,54.06
2016-12-10T06:08:15.945Z,53.87
2016-12-10T06:08:41.648Z,54.16
2016-12-10T06:09:07.185Z,53.96
2016-12-10T06:09:32.739Z,54.06
2016-12-10T06:09:58.286Z,54.16
2016-12-10T06:10:23.829Z,54.16
2016-12-10T06:10:49.411Z,54.06
2016-12-10T06:11:14.949Z,54.25
2016-12-10T06:11:40.512Z,54.06
2016-12-10T06:12:06.051Z,54.16
2016-12-10T06:12:31.745Z,54.25
2016-12-10T06:12:57.322Z,54.35
2016-12-10T06:13:22.876Z,54.06
2016-12-10T06:13:48.431Z,54.16
2016-12-10T06:14:14.060Z,54.16
2016-12-10T06:14:39.630Z,54.44
2016-12-10T06:15:05.199Z,54.25
2016-12-10T06:15:30.779Z,53.87
2016-12-10T06:15:56.333Z,53.87
2016-12-10T06:16:21.927Z,53.87
2016-12-10T06:16:47.506Z,54.06
2016-12-10T06:17:13.077Z,54.16
2016-12-10T06:17:38.616Z,53.96
2016-12-10T06:18:04.162Z,54.25
2016-12-10T06:18:29.724Z,53.77
2016-12-10T06:18:55.280Z,54.06
2016-12-10T06:19:20.853Z,54.16
2016-12-10T06:19:46.416Z,53.96
2016-12-10T06:20:11.971Z,54.16
2016-12-10T06:20:37.520Z,53.96
2016-12-10T06:21:03.089Z,54.06
2016-12-10T06:21:28.637Z,53.77
2016-12-10T06:21:54.198Z,53.67
2016-12-10T06:22:19.836Z,54.06
2016-12-10T06:22:45.377Z,53.67
2016-12-10T06:23:10.931Z,54.06
2016-12-10T06:23:36.496Z,54.06
2016-12-10T06:24:02.196Z,54.16
2016-12-10T06:24:28.108Z,54.44
2016-12-10T06:24:53.687Z,54.25
2016-12-10T06:25:19.255Z,54.35
2016-12-10T06:25:44.895Z,54.25
2016-12-10T06:26:10.468Z,54.64
2016-12-10T06:26:36.088Z,54.44
2016-12-10T06:27:01.643Z,54.25
2016-12-10T06:27:27.179Z,54.44
2016-12-10T06:27:52.736Z,54.35
2016-12-10T06:28:18.296Z,53.77
2016-12-10T06:28:43.838Z,54.25
2016-12-10T06:29:09.392Z,54.35
2016-12-10T06:29:35.049Z,54.74
2016-12-10T06:30:00.618Z,54.25
2016-12-10T06:30:26.218Z,53.96
2016-12-10T06:30:51.852Z,53.87
2016-12-10T06:31:17.399Z,53.87
2016-12-10T06:31:42.959Z,54.06
2016-12-10T06:32:08.534Z,54.16
2016-12-10T06:32:34.083Z,53.67
2016-12-10T06:32:59.653Z,53.77
2016-12-10T06:33:25.227Z,53.58
2016-12-10T06:33:50.792Z,54.06
2016-12-10T06:34:16.369Z,53.67
2016-12-10T06:34:42.029Z,53.77
2016-12-10T06:35:07.799Z,53.87
2016-12-10T06:35:33.457Z,53.87
2016-12-10T06:35:59.045Z,54.06
2016-12-10T06:36:24.669Z,54.06
2016-12-10T06:36:50.310Z,53.96
2016-12-10T06:37:15.871Z,53.67
2016-12-10T06:37:41.487Z,53.87
2016-12-10T06:38:07.157Z,54.06
2016-12-10T06:38:32.752Z,54.06
2016-12-10T06:38:58.326Z,53.77
2016-12-10T06:39:23.901Z,53.67
2016-12-10T06:39:49.467Z,53.67
2016-12-10T06:40:15.037Z,53.67
2016-12-10T06:40:40.614Z,53.87
2016-12-10T06:41:06.224Z,53.77
2016-12-10T06:41:31.783Z,53.67
2016-12-10T06:41:57.346Z,53.58
2016-12-10T06:42:23.593Z,54.06
2016-12-10T06:42:49.157Z,53.77
2016-12-10T06:43:14.707Z,54.06
2016-12-10T06:43:40.268Z,53.77
2016-12-10T06:44:05.834Z,53.96
2016-12-10T06:44:31.388Z,53.87
2016-12-10T06:44:56.934Z,53.87
2016-12-10T06:45:22.514Z,54.06
2016-12-10T06:45:48.168Z,53.77
2016-12-10T06:46:13.736Z,53.87
2016-12-10T06:46:39.293Z,53.77
2016-12-10T06:47:04.915Z,53.87
2016-12-10T06:47:30.484Z,53.87
2016-12-10T06:47:56.060Z,53.87
2016-12-10T06:48:21.632Z,53.67
2016-12-10T06:48:47.198Z,53.58
2016-12-10T06:49:12.753Z,53.77
2016-12-10T06:49:38.320Z,53.87
2016-12-10T06:50:03.893Z,53.77
2016-12-10T06:50:29.464Z,53.77
2016-12-10T06:50:55.040Z,53.67
2016-12-10T06:51:20.604Z,54.06
2016-12-10T06:51:46.173Z,53.77
2016-12-10T06:52:11.721Z,53.67
2016-12-10T06:52:37.288Z,53.67
2016-12-10T06:53:02.873Z,53.77
2016-12-10T06:53:28.443Z,53.96
2016-12-10T06:53:54.015Z,53.77
2016-12-10T06:54:19.587Z,53.58
2016-12-10T06:54:45.211Z,53.77
2016-12-10T06:55:10.795Z,54.06
2016-12-10T06:55:36.349Z,53.87
2016-12-10T06:56:01.888Z,53.87
2016-12-10T06:56:27.443Z,53.77
2016-12-10T06:56:53.094Z,53.87
2016-12-10T06:57:18.666Z,53.77
2016-12-10T06:57:44.225Z,53.77
2016-12-10T06:58:09.863Z,53.77
2016-12-10T06:58:35.454Z,53.87
2016-12-10T06:59:01.011Z,53.77
2016-12-10T06:59:26.657Z,53.87
2016-12-10T06:59:52.280Z,53.67
2016-12-10T07:00:17.944Z,53.58
2016-12-10T07:00:43.515Z,53.77
2016-12-10T07:01:41.689Z,53.96
2016-12-10T07:02:07.244Z,53.96
2016-12-10T07:02:32.803Z,53.87
2016-12-10T07:02:58.350Z,53.67
2016-12-10T07:03:23.941Z,53.77
2016-12-10T07:03:49.493Z,53.77
2016-12-10T07:04:15.044Z,53.77
2016-12-10T07:04:40.703Z,53.77
2016-12-10T07:05:06.301Z,53.87
2016-12-10T07:05:31.841Z,53.96
2016-12-10T07:05:57.384Z,53.77
2016-12-10T07:06:22.910Z,53.77
2016-12-10T07:06:48.475Z,53.67
2016-12-10T07:07:14.037Z,53.96
2016-12-10T07:07:39.582Z,53.96
2016-12-10T07:08:05.129Z,53.58
2016-12-10T07:08:30.680Z,53.77
2016-12-10T07:08:56.229Z,54.44
2016-12-10T07:09:21.800Z,53.96
2016-12-10T07:09:47.472Z,53.87
2016-12-10T07:10:13.016Z,53.77
2016-12-10T07:10:38.546Z,54.54
2016-12-10T07:11:04.219Z,53.58
2016-12-10T07:11:29.758Z,53.87
2016-12-10T07:11:55.292Z,53.96
2016-12-10T07:12:20.819Z,53.58
2016-12-10T07:12:46.357Z,54.25
2016-12-10T07:13:11.889Z,53.58
2016-12-10T07:13:37.437Z,53.96
2016-12-10T07:14:02.973Z,53.87
2016-12-10T07:14:28.557Z,53.77
2016-12-10T07:14:54.089Z,53.96
2016-12-10T07:15:19.626Z,53.77
2016-12-10T07:15:45.307Z,53.77
2016-12-10T07:16:10.861Z,53.77
2016-12-10T07:16:36.387Z,54.06
2016-12-10T07:17:01.955Z,54.06
2016-12-10T07:17:27.517Z,53.87
2016-12-10T07:17:53.082Z,54.54
2016-12-10T07:18:18.650Z,54.64
2016-12-10T07:18:44.217Z,54.54
2016-12-10T07:19:09.895Z,54.54
2016-12-10T07:19:35.437Z,54.35
2016-12-10T07:20:01.023Z,54.44
2016-12-10T07:20:26.555Z,54.74
2016-12-10T07:20:52.136Z,54.74
2016-12-10T07:21:17.741Z,54.93
2016-12-10T07:21:43.314Z,54.83
2016-12-10T07:22:08.862Z,55.02
2016-12-10T07:22:34.506Z,54.74
2016-12-10T07:23:00.058Z,54.64
2016-12-10T07:23:25.811Z,54.74
2016-12-10T07:23:51.338Z,54.74
2016-12-10T07:24:16.898Z,54.64
2016-12-10T07:24:42.437Z,55.51
2016-12-10T07:25:07.978Z,54.83
2016-12-10T07:25:33.533Z,55.12
2016-12-10T07:25:59.073Z,55.22
2016-12-10T07:26:24.605Z,55.22
2016-12-10T07:26:50.143Z,55.41
2016-12-10T07:27:15.703Z,55.6
2016-12-10T07:27:41.248Z,55.51
2016-12-10T07:28:06.809Z,55.12
2016-12-10T07:28:32.362Z,55.31
2016-12-10T07:28:57.938Z,55.22
2016-12-10T07:29:23.500Z,55.29
2016-12-10T07:29:49.060Z,55.12
2016-12-10T07:30:14.618Z,55.31
2016-12-10T07:30:40.402Z,55.51
2016-12-10T07:31:05.955Z,55.41
2016-12-10T07:31:31.526Z,55.79
2016-12-10T07:31:57.105Z,56.09
2016-12-10T07:32:22.677Z,55.99
2016-12-10T07:32:48.225Z,55.89
2016-12-10T07:33:13.807Z,55.89
2016-12-10T07:33:39.341Z,55.89
2016-12-10T07:34:04.892Z,56.09
2016-12-10T07:34:30.452Z,55.99
2016-12-10T07:34:56.025Z,55.79
2016-12-10T07:35:21.615Z,56.09
2016-12-10T07:35:47.243Z,55.89
2016-12-10T07:36:12.847Z,55.99
2016-12-10T07:36:38.468Z,55.89
2016-12-10T07:37:04.010Z,55.79
2016-12-10T07:37:29.585Z,55.79
2016-12-10T07:37:55.200Z,55.79
2016-12-10T07:38:20.784Z,55.7
2016-12-10T07:38:46.335Z,55.89
2016-12-10T07:39:11.977Z,55.89
2016-12-10T07:39:37.551Z,56.09
2016-12-10T07:40:03.121Z,56.09
2016-12-10T07:40:28.766Z,55.89
2016-12-10T07:40:54.357Z,55.89
2016-12-10T07:42:04.325Z,55.89
2016-12-10T07:42:29.535Z,55.89
2016-12-10T07:42:55.106Z,55.99
2016-12-10T07:43:20.726Z,55.99
2016-12-10T07:43:46.292Z,55.99
2016-12-10T07:44:11.884Z,55.99
2016-12-10T07:44:37.445Z,55.89
2016-12-10T07:45:03.006Z,55.7
2016-12-10T07:45:28.574Z,55.7
2016-12-10T07:45:54.171Z,55.99
2016-12-10T07:46:19.735Z,55.89
2016-12-10T07:46:45.298Z,56.27
2016-12-10T07:47:10.852Z,56.27
2016-12-10T07:47:36.591Z,56.27
2016-12-10T07:48:02.230Z,56.47
2016-12-10T07:48:28.321Z,56.66
2016-12-10T07:48:53.865Z,56.66
2016-12-10T07:49:19.436Z,56.47
2016-12-10T07:49:45.017Z,56.57
2016-12-10T07:50:10.640Z,56.47
2016-12-10T07:50:36.243Z,56.57
2016-12-10T07:51:02.015Z,56.85
2016-12-10T07:51:27.584Z,56.85
2016-12-10T07:51:53.143Z,57.05
2016-12-10T07:52:18.709Z,56.85
2016-12-10T07:52:44.328Z,56.18
2016-12-10T07:53:09.896Z,56.27
2016-12-10T07:53:35.494Z,56.66
2016-12-10T07:54:01.070Z,56.27
2016-12-10T07:54:26.733Z,56.27
2016-12-10T07:54:52.275Z,56.27
2016-12-10T07:55:17.833Z,56.95
2016-12-10T07:55:43.396Z,57.14
2016-12-10T07:56:08.946Z,56.95
2016-12-10T07:56:34.505Z,57.05
2016-12-10T07:57:00.065Z,56.95
2016-12-10T07:57:25.802Z,56.85
2016-12-10T07:57:51.427Z,57.24
2016-12-10T07:58:17.017Z,57.05
2016-12-10T07:58:42.631Z,57.05
2016-12-10T07:59:08.234Z,57.24
2016-12-10T07:59:33.853Z,57.14
2016-12-10T07:59:59.431Z,56.85
2016-12-10T08:00:25.003Z,56.95
2016-12-10T08:00:50.556Z,56.66
2016-12-10T08:01:16.183Z,56.27
2016-12-10T08:01:41.768Z,56.27
2016-12-10T08:02:07.327Z,56.37
2016-12-10T08:02:32.888Z,56.37
2016-12-10T08:02:58.446Z,56.47
2016-12-10T08:03:23.998Z,56.57
2016-12-10T08:03:49.576Z,56.09
2016-12-10T08:04:15.136Z,56.37
2016-12-10T08:04:40.715Z,56.18
2016-12-10T08:05:06.269Z,56.18
2016-12-10T08:05:31.885Z,56.27
2016-12-10T08:05:57.573Z,56.27
2016-12-10T08:06:23.104Z,56.37
2016-12-10T08:06:48.671Z,56.47
2016-12-10T08:07:14.344Z,56.27
2016-12-10T08:07:39.905Z,56.37
2016-12-10T08:08:05.480Z,56.37
2016-12-10T08:08:31.065Z,56.27
2016-12-10T08:08:56.694Z,56.18
2016-12-10T08:09:22.292Z,55.99
2016-12-10T08:09:47.850Z,56.09
2016-12-10T08:10:13.403Z,55.99
2016-12-10T08:10:38.992Z,56.09
2016-12-10T08:11:04.585Z,56.09
2016-12-10T08:11:30.160Z,56.18
2016-12-10T08:11:55.733Z,56.18
2016-12-10T08:12:21.555Z,55.99
2016-12-10T08:12:47.145Z,56.09
2016-12-10T08:13:12.706Z,55.89
2016-12-10T08:13:38.277Z,56.18
2016-12-10T08:14:03.896Z,56.09
2016-12-10T08:14:29.486Z,56.18
2016-12-10T08:14:55.093Z,55.99
2016-12-10T08:15:20.755Z,55.99
2016-12-10T08:15:46.417Z,56.09
2016-12-10T08:16:12.139Z,55.79
2016-12-10T08:16:37.740Z,55.89
2016-12-10T08:17:03.266Z,55.89
2016-12-10T08:17:28.852Z,55.89
2016-12-10T08:17:54.415Z,55.89
2016-12-10T08:18:20.025Z,55.79
2016-12-10T08:18:45.634Z,55.7
2016-12-10T08:19:11.200Z,55.99
2016-12-10T08:19:36.855Z,55.99
2016-12-10T08:20:02.411Z,55.99
2016-12-10T08:20:27.976Z,56.09
2016-12-10T08:20:53.525Z,56.09
2016-12-10T08:21:19.205Z,56.09
2016-12-10T08:21:44.778Z,55.79
2016-12-10T08:22:10.344Z,55.89
2016-12-10T08:22:35.967Z,56.09
2016-12-10T08:23:01.541Z,56.09
2016-12-10T08:23:27.250Z,56.09
2016-12-10T08:23:52.841Z,56.09
2016-12-10T08:24:18.448Z,55.79
2016-12-10T08:24:44.098Z,56.09
2016-12-10T08:25:09.684Z,55.79
2016-12-10T08:25:35.283Z,55.89
2016-12-10T08:26:00.975Z,55.99
2016-12-10T08:26:26.527Z,56.09
2016-12-10T08:26:52.078Z,55.89
2016-12-10T08:27:17.650Z,55.79
2016-12-10T08:27:43.280Z,55.7
2016-12-10T08:28:08.988Z,55.89
2016-12-10T08:28:34.484Z,55.79
2016-12-10T08:29:00.093Z,55.89
2016-12-10T08:29:25.695Z,55.79
2016-12-10T08:29:51.281Z,55.99
2016-12-10T08:30:16.846Z,55.89
2016-12-10T08:30:42.466Z,55.99
2016-12-10T08:31:08.087Z,55.79
2016-12-10T08:31:33.666Z,55.99
2016-12-10T08:31:59.244Z,55.79
2016-12-10T08:32:24.880Z,55.99
2016-12-10T08:32:50.541Z,55.89
2016-12-10T08:33:16.144Z,55.7
2016-12-10T08:33:41.703Z,55.89
2016-12-10T08:34:08.129Z,55.7
2016-12-10T08:34:33.708Z,55.89
2016-12-10T08:34:59.369Z,55.99
2016-12-10T08:35:24.937Z,56.09
2016-12-10T08:35:50.573Z,56.09
2016-12-10T08:36:16.147Z,55.31
2016-12-10T08:36:41.722Z,55.6
2016-12-10T08:37:07.303Z,55.41
2016-12-10T08:37:32.840Z,55.6
2016-12-10T08:37:58.511Z,55.41
2016-12-10T08:38:24.173Z,55.41
2016-12-10T08:38:49.651Z,55.12
2016-12-10T08:39:15.332Z,55.51
2016-12-10T08:39:40.900Z,55.51
2016-12-10T08:40:06.684Z,55.99
2016-12-10T08:40:32.309Z,55.89
2016-12-10T08:40:57.847Z,55.7
2016-12-10T08:41:23.466Z,55.99
2016-12-10T08:41:49.164Z,56.09
2016-12-10T08:42:14.712Z,55.89
2016-12-10T08:42:40.394Z,56.09
2016-12-10T08:43:05.953Z,55.89
2016-12-10T08:43:31.783Z,56.18
2016-12-10T08:43:57.429Z,55.99
2016-12-10T08:44:22.983Z,55.6
2016-12-10T08:44:49.264Z,55.51
2016-12-10T08:45:14.735Z,55.6
2016-12-10T08:45:40.302Z,55.31
2016-12-10T08:46:05.858Z,54.74
2016-12-10T08:46:31.621Z,54.44
2016-12-10T08:46:57.440Z,54.44
2016-12-10T08:47:23.015Z,54.64
2016-12-10T08:47:48.681Z,54.64
2016-12-10T08:48:14.290Z,54.35
2016-12-10T08:48:39.867Z,53.87
2016-12-10T08:49:05.453Z,54.35
2016-12-10T08:49:31.015Z,54.54
2016-12-10T08:49:56.627Z,54.54
2016-12-10T08:50:22.196Z,54.44
2016-12-10T08:50:47.858Z,54.54
2016-12-10T08:51:13.447Z,54.64
2016-12-10T08:51:39.027Z,54.44
2016-12-10T08:52:04.623Z,54.44
2016-12-10T08:52:30.197Z,54.93
2016-12-10T08:52:55.831Z,54.83
2016-12-10T08:53:21.453Z,54.54
2016-12-10T08:53:47.001Z,54.83
2016-12-10T08:54:12.650Z,54.74
2016-12-10T08:54:38.198Z,55.12
2016-12-10T08:55:03.868Z,55.41
2016-12-10T08:55:29.452Z,55.12
2016-12-10T08:55:55.034Z,55.31
2016-12-10T08:56:20.832Z,55.41
2016-12-10T08:56:46.394Z,55.12
2016-12-10T08:57:11.955Z,55.31
2016-12-10T08:57:37.611Z,54.93
2016-12-10T08:58:04.611Z,55.79
2016-12-10T08:58:30.187Z,55.99
2016-12-10T08:58:55.867Z,56.27
2016-12-10T08:59:21.527Z,56.09
2016-12-10T08:59:47.112Z,56.09
2016-12-10T09:00:12.761Z,55.89
2016-12-10T09:00:38.315Z,55.89
2016-12-10T09:01:03.972Z,55.99
2016-12-10T09:01:29.556Z,56.27
2016-12-10T09:01:55.140Z,55.41
2016-12-10T09:02:22.285Z,53.87
2016-12-10T09:02:49.289Z,53.29
2016-12-10T09:03:15.517Z,53.77
2016-12-10T09:04:14.030Z,55.31
2016-12-10T09:04:40.144Z,56.09
2016-12-10T09:05:06.168Z,56.37
2016-12-10T09:05:32.137Z,56.95
2016-12-10T09:05:58.271Z,57.05
2016-12-10T09:06:56.650Z,56.76
2016-12-10T09:07:22.839Z,56.95
2016-12-10T09:07:48.961Z,57.24
2016-12-10T09:08:15.020Z,57.24
2016-12-10T09:08:41.284Z,57.05
2016-12-10T09:09:07.351Z,57.14
2016-12-10T09:09:33.492Z,56.66
2016-12-10T09:09:59.604Z,56.76
2016-12-10T09:10:26.627Z,56.85
2016-12-10T09:10:52.437Z,56.95
2016-12-10T09:11:18.615Z,56.66
2016-12-10T09:11:44.618Z,56.85
2016-12-10T09:12:10.267Z,56.95
2016-12-10T09:12:35.888Z,57.14
2016-12-10T09:13:01.450Z,57.24
2016-12-10T09:13:27.082Z,57.24
2016-12-10T09:13:53.614Z,57.24
2016-12-10T09:14:19.212Z,57.05
2016-12-10T09:14:44.797Z,57.34
2016-12-10T09:15:10.372Z,57.05
2016-12-10T09:15:35.991Z,57.43
2016-12-10T09:16:01.644Z,57.62
2016-12-10T09:16:27.475Z,57.62
2016-12-10T09:16:53.094Z,57.72
2016-12-10T09:17:18.673Z,57.53
2016-12-10T09:17:44.217Z,57.43
2016-12-10T09:18:09.898Z,57.92
2016-12-10T09:18:35.386Z,57.92
2016-12-10T09:19:01.031Z,57.92
2016-12-10T09:19:26.620Z,57.92
2016-12-10T09:19:52.198Z,57.72
2016-12-10T09:20:17.748Z,57.82
2016-12-10T09:20:43.354Z,57.92
2016-12-10T09:21:08.959Z,57.72
2016-12-10T09:21:34.487Z,57.82
2016-12-10T09:22:00.116Z,57.82
2016-12-10T09:22:25.698Z,57.62
2016-12-10T09:22:51.439Z,57.82
2016-12-10T09:23:17.044Z,57.82
2016-12-10T09:23:42.612Z,57.62
2016-12-10T09:24:08.278Z,57.92
2016-12-10T09:24:33.917Z,57.92
2016-12-10T09:24:59.508Z,57.72
2016-12-10T09:25:25.384Z,57.53
2016-12-10T09:25:50.956Z,57.72
2016-12-10T09:26:16.519Z,57.62
2016-12-10T09:26:42.093Z,57.14
2016-12-10T09:27:07.635Z,56.76
2016-12-10T09:27:33.250Z,57.05
2016-12-10T09:27:58.949Z,57.62
2016-12-10T09:28:24.490Z,57.34
2016-12-10T09:28:50.052Z,57.43
2016-12-10T09:29:15.621Z,57.82
2016-12-10T09:29:41.204Z,58.01
2016-12-10T09:30:06.753Z,57.62
2016-12-10T09:30:32.338Z,57.92
2016-12-10T09:30:57.900Z,58.01
2016-12-10T09:31:23.569Z,57.62
2016-12-10T09:31:49.182Z,57.82
2016-12-10T09:32:14.746Z,57.62
2016-12-10T09:32:40.313Z,57.72
2016-12-10T09:33:05.855Z,57.43
2016-12-10T09:33:31.489Z,57.14
2016-12-10T09:33:57.159Z,57.14
2016-12-10T09:34:22.730Z,57.05
2016-12-10T09:34:48.333Z,57.05
2016-12-10T09:35:13.925Z,57.24
2016-12-10T09:35:39.569Z,57.05
2016-12-10T09:36:05.132Z,57.05
2016-12-10T09:36:30.705Z,56.95
2016-12-10T09:36:56.941Z,57.72
2016-12-10T09:37:22.516Z,57.92
2016-12-10T09:37:48.235Z,57.82
2016-12-10T09:38:13.823Z,58.01
2016-12-10T09:38:39.496Z,57.62
2016-12-10T09:39:05.061Z,57.53
2016-12-10T09:39:30.619Z,57.92
2016-12-10T09:39:56.276Z,57.62
2016-12-10T09:40:21.823Z,57.92
2016-12-10T09:40:47.406Z,57.72
2016-12-10T09:41:13.032Z,57.72
2016-12-10T09:41:38.655Z,57.92
2016-12-10T09:42:04.265Z,57.82
2016-12-10T09:42:29.779Z,57.43
2016-12-10T09:42:55.477Z,57.82
2016-12-10T09:43:21.036Z,57.24
2016-12-10T09:43:46.666Z,57.14
2016-12-10T09:44:12.309Z,57.24
2016-12-10T09:44:38.003Z,57.05
2016-12-10T09:45:03.724Z,57.53
2016-12-10T09:45:29.288Z,57.62
2016-12-10T09:45:54.887Z,57.62
2016-12-10T09:46:20.443Z,57.53
2016-12-10T09:46:46.128Z,57.62
2016-12-10T09:47:11.734Z,57.92
2016-12-10T09:47:37.359Z,57.82
2016-12-10T09:48:02.924Z,57.72
2016-12-10T09:48:28.656Z,57.34
2016-12-10T09:48:54.234Z,57.92
2016-12-10T09:49:19.893Z,57.72
2016-12-10T09:49:45.509Z,57.82
2016-12-10T09:50:11.073Z,57.62
2016-12-10T09:50:37.396Z,57.72
2016-12-10T09:51:02.970Z,57.53
2016-12-10T09:51:28.675Z,57.43
2016-12-10T09:51:54.320Z,57.62
2016-12-10T09:52:19.907Z,57.62
2016-12-10T09:52:45.510Z,57.62
2016-12-10T09:53:11.103Z,57.92
2016-12-10T09:53:36.738Z,58.11
2016-12-10T09:54:02.306Z,57.72
2016-12-10T09:55:05.573Z,58.11
2016-12-10T09:55:31.126Z,58.11
2016-12-10T09:55:56.743Z,57.72
2016-12-10T09:56:22.323Z,58.11
2016-12-10T09:56:47.895Z,58.3
2016-12-10T09:57:40.856Z,58.69
2016-12-10T09:58:06.444Z,58.3
2016-12-10T09:58:31.996Z,58.49
2016-12-10T09:58:57.654Z,58.78
2016-12-10T09:59:23.388Z,58.78
2016-12-10T09:59:48.954Z,58.59
2016-12-10T10:00:14.546Z,58.69
2016-12-10T10:00:40.093Z,58.69
2016-12-10T10:01:05.682Z,58.69
2016-12-10T10:01:31.248Z,58.59
2016-12-10T10:01:56.844Z,58.78
2016-12-10T10:02:22.407Z,58.78
2016-12-10T10:02:47.984Z,58.78
2016-12-10T10:03:13.652Z,58.78
2016-12-10T10:03:39.244Z,58.78
2016-12-10T10:04:04.821Z,58.78
2016-12-10T10:04:30.379Z,58.11
2016-12-10T10:04:56.027Z,58.3
2016-12-10T10:05:21.587Z,58.69
2016-12-10T10:05:47.149Z,58.49
2016-12-10T10:06:12.799Z,58.69
2016-12-10T10:06:38.350Z,58.69
2016-12-10T10:07:04.008Z,58.59
2016-12-10T10:07:29.634Z,58.78
2016-12-10T10:07:55.127Z,58.78
2016-12-10T10:08:20.680Z,58.78
2016-12-10T10:08:46.236Z,58.78
2016-12-10T10:09:11.801Z,58.59
2016-12-10T10:09:37.385Z,58.3
2016-12-10T10:10:03.028Z,58.4
2016-12-10T10:10:28.781Z,58.69
2016-12-10T10:10:54.352Z,58.49
2016-12-10T10:11:19.914Z,58.78
2016-12-10T10:11:45.497Z,58.49
2016-12-10T10:12:11.051Z,57.92
2016-12-10T10:12:36.604Z,58.49
2016-12-10T10:13:02.177Z,58.3
2016-12-10T10:13:27.749Z,58.3
2016-12-10T10:13:53.301Z,58.78
2016-12-10T10:14:18.900Z,58.3
2016-12-10T10:14:44.457Z,58.59
2016-12-10T10:15:10.010Z,58.78
2016-12-10T10:15:35.601Z,58.3
2016-12-10T10:16:01.183Z,58.49
2016-12-10T10:16:26.768Z,58.49
2016-12-10T10:16:52.348Z,58.59
2016-12-10T10:17:17.926Z,58.88
2016-12-10T10:17:43.489Z,58.59
2016-12-10T10:18:09.040Z,58.69
2016-12-10T10:18:34.588Z,58.69
2016-12-10T10:19:00.208Z,58.69
2016-12-10T10:19:25.788Z,58.69
2016-12-10T10:19:51.347Z,58.49
2016-12-10T10:20:16.934Z,58.3
2016-12-10T10:20:42.534Z,58.49
2016-12-10T10:21:08.329Z,58.49
2016-12-10T10:21:34.195Z,58.4
2016-12-10T10:21:59.758Z,58.4
2016-12-10T10:22:25.325Z,58.4
2016-12-10T10:22:51.124Z,58.78
2016-12-10T10:23:16.713Z,58.97
2016-12-10T10:23:42.265Z,58.69
2016-12-10T10:24:07.929Z,58.69
2016-12-10T10:24:33.511Z,58.59
2016-12-10T10:24:59.091Z,58.3
2016-12-10T10:25:24.689Z,58.49
2016-12-10T10:25:50.280Z,58.97
2016-12-10T10:26:15.858Z,58.78
2016-12-10T10:26:41.409Z,58.59
2016-12-10T10:27:07.051Z,58.69
2016-12-10T10:27:32.618Z,59.07
2016-12-10T10:27:58.184Z,58.88
2016-12-10T10:28:23.752Z,58.2
2016-12-10T10:28:49.365Z,58.49
2016-12-10T10:29:14.917Z,58.4
2016-12-10T10:29:40.481Z,58.49
2016-12-10T10:30:06.048Z,58.49
2016-12-10T10:30:31.658Z,58.69
2016-12-10T10:30:57.247Z,58.69
2016-12-10T10:31:22.810Z,58.59
2016-12-10T10:31:48.377Z,58.59
2016-12-10T10:32:14.019Z,58.78
2016-12-10T10:32:39.587Z,58.69
2016-12-10T10:33:05.161Z,58.69
2016-12-10T10:33:30.751Z,58.59